Terminal Aerodrome Forecast
Issued by NWS

Home | Current Version | Previous Version | Text Only | Print | Product List | Glossary On
Versions: 1 2 3 4 5 6 7 8 9 10 11 12 13 14 15 16
000
FTUS44 KLZK 250000 AAA
TAFBPK
TAF AMD
KBPK 250033Z 2501/2524 16009KT P6SM VCSH SCT025 BKN060
      TEMPO 2502/2506 2SM -RA BR BKN025 OVC040
     FM250600 16007KT 6SM -RA BR BKN025 OVC040
     FM250900 19006KT 5SM -RA BR SCT010 OVC025
     FM251200 17007KT 6SM BR VCSH BKN025 OVC040=

USA.gov is the U.S. government's official web portal to all federal, state and local government web resources and services.